Time;durP1;ratioP1;P1;durP2;ratioP2;P2;SDS_P1;SDS_P2;PMS_P1;PMS_P2;Temp;Humidity;BMP_temperature;BMP_pressure;BME280_temperature;BME280_humidity;BME280_pressure;Samples;Min_cycle;Max_cycle;Signal;HPM_P1;HPM_P2
2021/08/20 00:01:02;;;;;;;21.88;17.83;;;15.60;99.90;;;;;;4770615;29;20971;-83
2021/08/20 00:03:28;;;;;;;23.88;19.30;;;15.60;99.90;;;;;;4774381;29;20051;-89
2021/08/20 00:06:00;;;;;;;24.45;19.90;;;15.70;99.90;;;;;;4794900;29;20063;-88
2021/08/20 00:08:29;;;;;;;22.08;19.45;;;15.70;99.90;;;;;;4779178;29;20050;-89
2021/08/20 00:11:03;;;;;;;21.45;19.15;;;15.70;99.90;;;;;;4831853;29;20049;-81
2021/08/20 00:13:39;;;;;;;21.17;18.92;;;15.70;99.90;;;;;;4828384;29;20033;-91
2021/08/20 00:16:06;;;;;;;23.77;21.25;;;15.60;99.90;;;;;;4838681;29;20873;-89
2021/08/20 00:18:34;;;;;;;21.33;19.02;;;15.70;99.90;;;;;;4809085;29;20049;-81
2021/08/20 00:21:01;;;;;;;22.85;20.10;;;15.60;99.90;;;;;;4845761;29;20449;-90
2021/08/20 00:23:27;;;;;;;21.17;18.45;;;15.60;99.90;;;;;;4808349;29;20045;-79
2021/08/20 00:25:56;;;;;;;23.00;20.00;;;15.50;99.90;;;;;;4826135;29;20053;-86
2021/08/20 00:28:22;;;;;;;21.13;18.88;;;15.40;99.90;;;;;;4831604;29;20041;-89
2021/08/20 00:30:49;;;;;;;21.02;18.35;;;15.40;99.90;;;;;;4811508;29;20045;-82
2021/08/20 00:33:20;;;;;;;23.42;19.02;;;15.30;99.90;;;;;;4812285;29;20061;-88
2021/08/20 00:35:49;;;;;;;21.95;19.33;;;15.20;99.90;;;;;;4801268;29;20045;-81
2021/08/20 00:38:18;;;;;;;21.75;18.60;;;15.10;99.90;;;;;;4814996;29;20045;-88
2021/08/20 00:40:45;;;;;;;21.58;17.95;;;15.10;99.90;;;;;;4844254;29;20809;-88
2021/08/20 00:43:14;;;;;;;21.35;18.40;;;15.10;99.90;;;;;;4829086;29;20045;-82
2021/08/20 00:45:56;;;;;;;20.00;17.80;;;15.00;99.90;;;;;;4829288;29;20148;-82
2021/08/20 00:48:26;;;;;;;20.35;16.27;;;15.00;99.90;;;;;;4842158;29;20523;-81
2021/08/20 00:51:15;;;;;;;21.13;16.75;;;15.00;99.90;;;;;;4817790;29;20064;-83
2021/08/20 00:53:46;;;;;;;21.08;17.60;;;14.90;99.90;;;;;;4833155;29;20053;-82
2021/08/20 00:56:16;;;;;;;;;;;14.90;99.90;;;;;;4831925;29;20048;-82
2021/08/20 00:58:48;;;;;;;24.00;17.15;;;14.90;99.90;;;;;;4844266;29;19915;-81
2021/08/20 01:01:17;;;;;;;24.27;17.37;;;14.90;99.90;;;;;;4834255;29;20057;-82
2021/08/20 01:03:44;;;;;;;23.40;19.00;;;14.90;99.90;;;;;;4832849;29;20049;-82
2021/08/20 01:06:10;;;;;;;24.75;18.10;;;14.80;99.90;;;;;;4844636;29;20057;-82
2021/08/20 01:08:41;;;;;;;20.35;17.15;;;14.80;99.90;;;;;;4841578;29;20060;-82
2021/08/20 01:11:12;;;;;;;25.02;17.10;;;14.80;99.90;;;;;;4827271;29;20060;-88
2021/08/20 01:13:43;;;;;;;19.20;15.73;;;14.80;99.90;;;;;;4828377;29;20049;-88
2021/08/20 01:16:11;;;;;;;20.83;18.25;;;14.80;99.90;;;;;;4821566;29;20064;-88
2021/08/20 01:18:40;;;;;;;21.75;17.98;;;14.90;99.90;;;;;;4826939;29;20056;-82
2021/08/20 01:21:11;;;;;;;20.42;17.38;;;14.90;99.90;;;;;;4827865;29;20069;-87
2021/08/20 01:23:39;;;;;;;16.95;15.13;;;14.90;99.90;;;;;;4859741;29;20050;-89
2021/08/20 01:26:10;;;;;;;19.48;17.02;;;14.90;99.90;;;;;;4826261;29;20259;-88
2021/08/20 01:28:37;;;;;;;18.48;16.58;;;14.90;99.90;;;;;;4845148;29;20048;-82
2021/08/20 01:31:10;;;;;;;19.58;16.08;;;14.90;99.90;;;;;;4830390;29;20040;-82
2021/08/20 01:33:39;;;;;;;18.05;15.65;;;14.90;99.90;;;;;;4837767;29;20490;-88
2021/08/20 01:36:08;;;;;;;18.85;16.55;;;14.90;99.90;;;;;;4840711;29;20049;-82
2021/08/20 01:38:52;;;;;;;18.00;16.00;;;14.80;99.90;;;;;;4859985;29;20037;-83
2021/08/20 01:41:25;;;;;;;22.08;16.10;;;14.80;99.90;;;;;;4834796;29;20064;-83
2021/08/20 01:43:52;;;;;;;17.90;15.88;;;14.90;99.90;;;;;;4843827;29;20053;-82
2021/08/20 01:46:19;;;;;;;18.85;15.95;;;14.90;99.90;;;;;;4832192;29;20052;-82
2021/08/20 01:48:54;;;;;;;19.08;14.82;;;14.90;99.90;;;;;;4849483;29;20061;-87
2021/08/20 01:51:21;;;;;;;18.92;15.82;;;14.90;99.90;;;;;;4827285;29;20077;-84
2021/08/20 01:53:51;;;;;;;17.73;15.30;;;14.90;99.90;;;;;;4859762;29;20041;-82
2021/08/20 01:56:26;;;;;;;16.85;14.80;;;14.90;99.90;;;;;;4851983;29;20051;-87
2021/08/20 01:58:56;;;;;;;19.05;14.88;;;14.80;99.90;;;;;;4857426;29;20044;-86
2021/08/20 02:01:25;;;;;;;18.13;15.50;;;14.80;99.90;;;;;;4838836;29;20067;-86
2021/08/20 02:03:52;;;;;;;16.52;14.13;;;14.70;99.90;;;;;;4870924;29;20045;-86
2021/08/20 02:06:22;;;;;;;20.92;16.88;;;14.70;99.90;;;;;;4815658;29;20057;-84
2021/08/20 02:08:50;;;;;;;19.15;16.63;;;14.60;99.90;;;;;;4863260;29;20515;-90
2021/08/20 02:11:17;;;;;;;22.13;15.55;;;14.60;99.90;;;;;;4843949;29;20048;-86
2021/08/20 02:13:52;;;;;;;21.95;17.00;;;14.60;99.90;;;;;;4855737;29;20045;-86
2021/08/20 02:16:20;;;;;;;20.17;17.63;;;14.50;99.90;;;;;;4825581;29;20064;-86
2021/08/20 02:18:47;;;;;;;20.55;17.80;;;14.40;99.90;;;;;;4866600;29;20041;-81
2021/08/20 02:21:16;;;;;;;23.70;18.33;;;14.50;99.90;;;;;;4874881;29;20052;-81
2021/08/20 02:23:55;;;;;;;22.88;16.35;;;14.50;99.90;;;;;;4854427;29;20040;-81
2021/08/20 02:26:24;;;;;;;21.08;16.20;;;14.60;99.90;;;;;;4850238;29;20045;-81
2021/08/20 02:28:54;;;;;;;19.58;16.30;;;14.70;99.90;;;;;;4822576;29;20061;-81
2021/08/20 02:31:21;;;;;;;19.52;16.38;;;14.70;99.90;;;;;;4825334;29;20093;-81
2021/08/20 02:33:49;;;;;;;17.75;15.85;;;14.80;99.90;;;;;;4837738;29;20413;-81
2021/08/20 02:36:16;;;;;;;22.25;15.32;;;14.90;99.90;;;;;;4832782;29;20057;-81
2021/08/20 02:38:44;;;;;;;17.58;15.35;;;14.90;99.90;;;;;;4858291;29;20056;-87
2021/08/20 02:41:11;;;;;;;16.48;14.55;;;15.00;99.90;;;;;;4827609;29;20054;-87
2021/08/20 02:43:46;;;;;;;18.35;14.65;;;15.00;99.90;;;;;;4844234;29;20052;-86
2021/08/20 02:46:13;;;;;;;20.35;15.40;;;15.10;99.90;;;;;;4823798;29;20041;-86
2021/08/20 02:48:42;;;;;;;22.70;15.07;;;15.10;99.90;;;;;;4848542;29;20041;-86
2021/08/20 02:51:11;;;;;;;17.52;15.70;;;15.10;99.90;;;;;;4833001;29;20063;-87
2021/08/20 02:53:42;;;;;;;18.95;15.32;;;15.10;99.90;;;;;;4860509;29;20033;-80
2021/08/20 02:56:09;;;;;;;18.80;15.65;;;15.00;99.90;;;;;;4831766;29;20056;-86
2021/08/20 02:58:49;;;;;;;18.10;15.10;;;15.00;99.90;;;;;;4861390;29;20041;-79
2021/08/20 03:01:15;;;;;;;18.90;14.50;;;15.00;99.90;;;;;;4847075;29;20045;-87
2021/08/20 03:03:43;;;;;;;20.95;16.23;;;15.10;99.90;;;;;;4812464;29;20057;-87
2021/08/20 03:06:17;;;;;;;17.30;15.23;;;15.10;99.90;;;;;;4852945;29;20053;-80
2021/08/20 03:08:52;;;;;;;19.58;15.38;;;15.10;99.90;;;;;;4839818;29;20060;-86
2021/08/20 03:11:19;;;;;;;20.90;16.60;;;15.10;99.90;;;;;;4829277;29;20049;-81
2021/08/20 03:13:45;;;;;;;19.23;15.15;;;15.10;99.90;;;;;;4833019;29;20049;-87
2021/08/20 03:16:12;;;;;;;19.40;15.88;;;15.10;99.90;;;;;;4837553;29;20508;-86
2021/08/20 03:18:40;;;;;;;17.05;15.25;;;15.10;99.90;;;;;;4832402;29;20060;-87
2021/08/20 03:21:16;;;;;;;22.88;17.95;;;15.10;99.90;;;;;;4829343;29;20048;-81
2021/08/20 03:24:08;;;;;;;21.02;17.63;;;15.10;99.90;;;;;;5129458;27;20959;-87
2021/08/20 03:26:51;;;;;;;21.70;17.80;;;15.20;99.90;;;;;;5114350;27;20323;-86
2021/08/20 03:29:38;;;;;;;22.00;17.85;;;15.20;99.90;;;;;;5097706;27;20308;-86
2021/08/20 03:32:31;;;;;;;18.92;15.75;;;15.30;99.90;;;;;;5071931;27;20421;-86
2021/08/20 03:35:10;;;;;;;23.40;16.42;;;15.30;99.90;;;;;;5065462;28;20449;-83
2021/08/20 03:37:50;;;;;;;22.50;17.60;;;15.30;99.90;;;;;;5117299;27;20416;-81
2021/08/20 03:40:33;;;;;;;21.02;15.63;;;15.30;99.90;;;;;;5089607;27;1353640;-87
2021/08/20 03:43:16;;;;;;;24.83;19.00;;;15.30;99.90;;;;;;5110310;27;20418;-86
2021/08/20 03:46:09;;;;;;;22.25;17.17;;;15.30;99.90;;;;;;5140660;27;20305;-86
2021/08/20 03:48:50;;;;;;;21.08;18.35;;;15.30;99.90;;;;;;5163477;27;20399;-81
2021/08/20 03:51:32;;;;;;;18.63;14.90;;;15.30;99.90;;;;;;5108393;27;20103;-80
2021/08/20 03:54:18;;;;;;;25.10;19.45;;;15.40;99.90;;;;;;5057145;28;20500;-86
2021/08/20 03:57:00;;;;;;;23.67;19.45;;;15.40;99.90;;;;;;5094505;27;20423;-86
2021/08/20 03:59:37;;;;;;;22.85;18.20;;;15.40;99.90;;;;;;5048267;27;1735848;-81
2021/08/20 04:02:21;;;;;;;28.58;21.33;;;15.40;99.90;;;;;;5064567;28;20456;-80
2021/08/20 04:04:58;;;;;;;26.58;20.08;;;15.50;99.90;;;;;;5079561;27;1508016;-85
2021/08/20 04:08:18;;;;;;;23.55;18.45;;;15.50;99.90;;;;;;5096923;27;20499;-87
2021/08/20 04:11:23;;;;;;;25.75;19.38;;;15.50;99.90;;;;;;5125644;27;20136;-81
2021/08/20 04:14:18;;;;;;;29.77;21.45;;;15.50;99.90;;;;;;5111579;27;20530;-80
2021/08/20 04:16:59;;;;;;;22.42;19.02;;;15.60;99.90;;;;;;5135120;27;20103;-85
2021/08/20 04:19:41;;;;;;;24.13;20.45;;;15.60;99.90;;;;;;5071942;28;20395;-79
2021/08/20 04:22:36;;;;;;;25.20;19.85;;;15.60;99.90;;;;;;5112214;27;21282;-86
2021/08/20 04:25:18;;;;;;;24.48;20.10;;;15.60;99.90;;;;;;5109019;27;20365;-85
2021/08/20 04:28:25;;;;;;;25.27;18.95;;;15.60;99.90;;;;;;5112575;27;20900;-86
2021/08/20 04:31:20;;;;;;;27.02;18.85;;;15.60;99.90;;;;;;5137125;27;20395;-85
2021/08/20 04:34:28;;;;;;;23.17;18.58;;;15.60;99.90;;;;;;5114946;27;20674;-86
2021/08/20 04:37:39;;;;;;;28.75;19.83;;;15.60;99.90;;;;;;5109935;27;20411;-86
2021/08/20 04:40:37;;;;;;;31.10;21.33;;;15.70;99.90;;;;;;5066433;28;20661;-86
2021/08/20 04:43:40;;;;;;;21.45;18.00;;;15.70;99.90;;;;;;5112581;27;20749;-86
2021/08/20 04:46:39;;;;;;;25.95;20.27;;;15.70;99.90;;;;;;5103933;27;20311;-80
2021/08/20 04:49:36;;;;;;;27.55;20.60;;;15.70;99.90;;;;;;5144406;27;20508;-80
2021/08/20 04:52:35;;;;;;;25.80;19.17;;;15.70;99.90;;;;;;5123793;27;20715;-80
2021/08/20 04:55:36;;;;;;;26.30;19.60;;;15.80;99.90;;;;;;5142822;27;19916;-80
2021/08/20 04:58:17;;;;;;;30.48;21.48;;;15.80;99.90;;;;;;5082938;28;20923;-80
2021/08/20 05:01:32;;;;;;;28.30;21.20;;;15.80;99.90;;;;;;5123373;27;20415;-79
2021/08/20 05:04:36;;;;;;;28.65;20.67;;;15.80;99.90;;;;;;5124604;27;20462;-80
2021/08/20 05:07:34;;;;;;;28.45;22.67;;;15.80;99.90;;;;;;5080739;27;20411;-80
2021/08/20 05:10:29;;;;;;;28.70;22.90;;;15.80;99.90;;;;;;5089620;27;20476;-80
2021/08/20 05:13:21;;;;;;;31.13;21.52;;;15.80;99.90;;;;;;5126923;27;20112;-80
2021/08/20 05:16:12;;;;;;;27.42;20.92;;;15.90;99.90;;;;;;5083075;27;20411;-79
2021/08/20 05:19:06;;;;;;;27.60;20.75;;;15.90;99.90;;;;;;5082699;27;20422;-79
2021/08/20 05:22:07;;;;;;;29.88;22.25;;;15.90;99.90;;;;;;5110245;27;20379;-80
2021/08/20 05:25:16;;;;;;;27.17;22.20;;;16.00;99.90;;;;;;5125396;27;20407;-80
2021/08/20 05:28:12;;;;;;;28.50;20.73;;;16.00;99.90;;;;;;5116807;28;20533;-80
2021/08/20 05:30:50;;;;;;;29.80;23.05;;;16.00;99.90;;;;;;5089569;27;1311810;-80
2021/08/20 05:33:27;;;;;;;28.98;20.98;;;16.10;99.90;;;;;;5010920;27;2039648;-80
2021/08/20 05:36:09;;;;;;;25.90;19.55;;;16.00;99.90;;;;;;5062058;28;20481;-80
2021/08/20 05:38:47;;;;;;;27.00;20.48;;;16.10;99.90;;;;;;5066000;28;20403;-80
2021/08/20 05:41:24;;;;;;;27.10;21.38;;;16.10;99.90;;;;;;5111962;27;20405;-80
2021/08/20 05:44:01;;;;;;;29.05;21.60;;;16.10;99.90;;;;;;5062529;28;20189;-80
2021/08/20 05:46:41;;;;;;;28.20;20.80;;;16.10;99.90;;;;;;5135772;27;20696;-80
2021/08/20 05:49:17;;;;;;;26.27;19.58;;;16.10;99.90;;;;;;5090157;27;1277868;-80
2021/08/20 05:51:54;;;;;;;30.55;21.63;;;16.20;99.90;;;;;;5090042;27;20421;-80
2021/08/20 05:54:30;;;;;;;24.23;18.90;;;16.10;99.90;;;;;;5096064;27;20627;-80
2021/08/20 05:57:09;;;;;;;27.98;19.58;;;16.20;99.90;;;;;;5150112;27;20113;-80
2021/08/20 05:59:47;;;;;;;29.33;19.40;;;16.20;99.90;;;;;;5102526;27;20396;-80
2021/08/20 06:02:24;;;;;;;30.15;21.27;;;16.30;99.90;;;;;;5062821;28;20216;-80
2021/08/20 06:05:05;;;;;;;28.73;22.38;;;16.40;99.90;;;;;;5067044;27;20876;-87
2021/08/20 06:07:47;;;;;;;29.08;21.00;;;16.40;99.90;;;;;;5143857;27;20309;-86
2021/08/20 06:10:26;;;;;;;31.65;20.98;;;16.50;99.90;;;;;;5095517;27;21006;-85
2021/08/20 06:13:04;;;;;;;31.00;20.73;;;16.50;99.90;;;;;;5124144;27;20116;-86
2021/08/20 06:15:45;;;;;;;28.60;19.60;;;16.60;99.90;;;;;;5109745;27;20387;-85
2021/08/20 06:18:35;;;;;;;28.83;20.58;;;16.70;99.90;;;;;;5158244;27;20301;-88
2021/08/20 06:21:14;;;;;;;27.50;20.67;;;16.70;99.90;;;;;;5119045;27;20499;-85
2021/08/20 06:23:55;;;;;;;27.75;20.30;;;16.80;99.90;;;;;;5050929;27;1717232;-85
2021/08/20 06:26:35;;;;;;;27.35;19.70;;;16.90;99.90;;;;;;5064564;28;20528;-80
2021/08/20 06:29:02;;;;;;;27.15;19.23;;;16.90;99.90;;;;;;5030940;28;21608;-83
2021/08/20 06:31:42;;;;;;;28.08;20.90;;;17.00;99.90;;;;;;5093578;28;20363;-86
2021/08/20 06:34:20;;;;;;;26.73;20.80;;;17.00;99.90;;;;;;5021061;27;1320438;-85
2021/08/20 06:37:04;;;;;;;26.08;19.30;;;17.00;99.90;;;;;;5110290;27;20394;-84
2021/08/20 06:39:44;;;;;;;29.00;20.88;;;17.10;99.90;;;;;;5103096;27;20108;-84
2021/08/20 06:42:22;;;;;;;26.13;20.13;;;17.10;99.90;;;;;;5119202;27;20140;-85
2021/08/20 06:45:00;;;;;;;27.88;19.98;;;17.10;99.90;;;;;;5111401;27;20130;-85
2021/08/20 06:47:39;;;;;;;26.98;20.13;;;17.20;99.90;;;;;;5062243;28;20383;-84
2021/08/20 06:50:18;;;;;;;23.70;19.25;;;17.30;99.90;;;;;;5104317;27;1304495;-85
2021/08/20 06:52:55;;;;;;;24.75;19.25;;;17.50;99.90;;;;;;5120693;27;20788;-82
2021/08/20 06:55:34;;;;;;;24.80;18.52;;;17.70;99.90;;;;;;5144645;27;20309;-86
2021/08/20 06:58:16;;;;;;;24.40;18.40;;;18.00;99.90;;;;;;5061596;28;20439;-84
2021/08/20 07:00:55;;;;;;;26.00;20.08;;;18.20;99.90;;;;;;5021939;27;2703448;-84
2021/08/20 07:03:46;;;;;;;23.08;19.45;;;18.40;99.90;;;;;;5091508;27;20383;-85
2021/08/20 07:06:27;;;;;;;22.38;17.98;;;18.50;99.90;;;;;;5047288;27;20447;-79
2021/08/20 07:09:06;;;;;;;23.98;18.30;;;18.60;99.90;;;;;;4897067;28;3798406;-83
2021/08/20 07:11:48;;;;;;;23.58;16.63;;;18.60;99.90;;;;;;5148122;27;20329;-87
2021/08/20 07:14:28;;;;;;;18.50;15.90;;;18.50;99.90;;;;;;5127229;27;20395;-86
2021/08/20 07:17:10;;;;;;;18.17;15.65;;;18.50;99.90;;;;;;5092532;27;20420;-87
2021/08/20 07:19:49;;;;;;;21.13;15.95;;;18.50;99.90;;;;;;5085677;27;20388;-83
2021/08/20 07:22:26;;;;;;;21.02;15.73;;;18.50;99.90;;;;;;5078458;27;1340211;-84
2021/08/20 07:25:05;;;;;;;18.65;15.00;;;18.60;99.90;;;;;;5074188;28;20913;-84
2021/08/20 07:27:49;;;;;;;16.90;13.57;;;18.70;99.90;;;;;;5085723;27;20402;-86
2021/08/20 07:30:33;;;;;;;15.27;12.82;;;18.70;99.90;;;;;;5052908;28;20409;-84
2021/08/20 07:33:13;;;;;;;18.15;15.43;;;18.90;99.90;;;;;;5093780;27;1380067;-86
2021/08/20 07:35:52;;;;;;;21.83;18.40;;;19.00;99.90;;;;;;5103972;27;20381;-85
2021/08/20 07:38:32;;;;;;;19.60;16.08;;;19.00;99.90;;;;;;5098778;27;20372;-87
2021/08/20 07:40:59;;;;;;;20.10;16.92;;;19.00;99.90;;;;;;5071858;28;20047;-82
2021/08/20 07:43:40;;;;;;;18.15;16.25;;;19.00;99.90;;;;;;5146097;27;20437;-81
2021/08/20 07:46:21;;;;;;;18.23;16.30;;;19.10;99.90;;;;;;5104623;27;20388;-83
2021/08/20 07:49:00;;;;;;;19.42;16.23;;;19.20;99.90;;;;;;5064363;28;20513;-86
2021/08/20 07:51:42;;;;;;;19.73;16.10;;;19.20;99.90;;;;;;5113423;27;20314;-89
2021/08/20 07:54:31;;;;;;;19.42;15.70;;;19.10;99.90;;;;;;5129841;27;20803;-89
2021/08/20 07:57:14;;;;;;;16.95;15.15;;;19.10;99.90;;;;;;5135823;27;20306;-85
2021/08/20 08:00:10;;;;;;;16.77;15.07;;;19.10;99.90;;;;;;5072436;27;1885180;-91
2021/08/20 08:02:56;;;;;;;18.02;16.10;;;19.30;99.90;;;;;;5079145;27;20335;-88
2021/08/20 08:15:58;;;;;;;14.77;13.27;;;19.40;99.90;;;;;;4436530;27;17860381;-85
2021/08/20 08:18:56;;;;;;;17.02;15.32;;;19.90;99.90;;;;;;5089811;27;20114;-83
2021/08/20 08:21:57;;;;;;;15.98;14.38;;;19.90;99.90;;;;;;5113938;27;20405;-85
2021/08/20 08:24:58;;;;;;;15.95;14.35;;;20.00;99.90;;;;;;5082101;28;20144;-81
2021/08/20 08:27:58;;;;;;;16.58;14.77;;;20.10;99.90;;;;;;5079845;27;20412;-91
2021/08/20 08:31:02;;;;;;;14.20;12.90;;;20.20;99.90;;;;;;5091135;27;20383;-85
2021/08/20 08:33:40;;;;;;;16.42;14.77;;;20.20;99.90;;;;;;4515964;27;18039865;-88
2021/08/20 08:36:35;;;;;;;14.43;13.00;;;20.10;99.90;;;;;;5106780;27;20384;-84
2021/08/20 08:39:44;;;;;;;15.32;13.82;;;20.30;99.90;;;;;;5045909;28;20473;-85
2021/08/20 08:42:38;;;;;;;13.93;12.55;;;20.70;99.90;;;;;;5085668;28;20407;-89
2021/08/20 08:45:42;;;;;;;13.30;12.05;;;21.30;99.90;;;;;;5083547;27;20965;-83
2021/08/20 08:48:28;;;;;;;12.20;11.07;;;21.50;99.90;;;;;;5064966;27;1688738;-87
2021/08/20 08:51:20;;;;;;;14.57;13.15;;;21.70;99.90;;;;;;5084626;27;21196;-87
2021/08/20 08:54:12;;;;;;;23.95;21.35;;;21.70;99.90;;;;;;5121762;27;20696;-86
2021/08/20 08:56:56;;;;;;;13.43;12.02;;;21.80;99.90;;;;;;5121121;27;20390;-86
2021/08/20 08:59:48;;;;;;;11.93;10.73;;;21.80;99.90;;;;;;5110050;27;20399;-88
2021/08/20 09:02:34;;;;;;;12.02;10.82;;;21.80;99.90;;;;;;4774306;27;7528239;-87
2021/08/20 09:06:00;;;;;;;11.23;10.10;;;21.80;99.90;;;;;;5048318;27;1576332;-87
2021/08/20 09:09:06;;;;;;;11.30;10.30;;;21.90;99.90;;;;;;5152040;27;20305;-86
2021/08/20 09:12:06;;;;;;;11.23;10.13;;;22.10;99.90;;;;;;5101180;27;20424;-85
2021/08/20 09:14:59;;;;;;;11.65;10.55;;;22.30;99.90;;;;;;5153994;27;21225;-87
2021/08/20 09:17:47;;;;;;;9.27;8.48;;;22.30;99.90;;;;;;5109244;27;20387;-85
2021/08/20 09:35:21;;;;;;;10.75;9.38;;;22.20;99.90;;;;;;5111099;27;20322;-85
2021/08/20 09:38:07;;;;;;;10.75;8.68;;;22.50;99.90;;;;;;5103221;27;20375;-85
2021/08/20 09:40:52;;;;;;;9.05;8.15;;;22.60;99.90;;;;;;5079345;27;20389;-86
2021/08/20 09:43:37;;;;;;;9.48;8.48;;;22.70;99.90;;;;;;5067424;27;20405;-84
2021/08/20 09:46:39;;;;;;;10.25;9.20;;;22.90;99.90;;;;;;5132204;27;20143;-85
2021/08/20 09:49:57;;;;;;;8.40;7.57;;;23.00;99.90;;;;;;5051112;28;20395;-86
2021/08/20 09:53:11;;;;;;;10.55;9.45;;;23.10;99.90;;;;;;5108722;27;20396;-85
2021/08/20 09:55:54;;;;;;;8.65;7.72;;;23.20;99.90;;;;;;4999316;28;1403588;-87
2021/08/20 09:58:38;;;;;;;10.48;8.65;;;23.20;99.90;;;;;;5052744;27;1494197;-88
2021/08/20 10:01:42;;;;;;;7.53;6.90;;;23.20;99.90;;;;;;5104492;27;20789;-88
2021/08/20 10:27:53;;;;;;;7.65;6.88;;;23.20;99.90;;;;;;6097495;22;3999580;-87
2021/08/20 10:30:20;;;;;;;6.13;5.55;;;24.40;99.90;;;;;;6220197;23;20337;-87
2021/08/20 10:33:05;;;;;;;5.35;4.85;;;24.40;99.90;;;;;;6167858;23;20439;-86
2021/08/20 10:35:54;;;;;;;5.57;4.93;;;24.40;99.90;;;;;;6191846;23;20015;-87
2021/08/20 10:38:39;;;;;;;5.97;5.47;;;24.60;99.90;;;;;;6244157;23;20011;-87
2021/08/20 10:41:16;;;;;;;7.25;6.53;;;24.80;99.90;;;;;;6167548;23;20031;-85
2021/08/20 10:44:12;;;;;;;5.93;5.43;;;25.10;99.30;;;;;;5148212;27;20141;-85
2021/08/20 10:46:57;;;;;;;6.50;5.90;;;25.40;99.10;;;;;;5084286;27;20156;-84
2021/08/20 10:49:42;;;;;;;6.30;5.40;;;25.60;98.70;;;;;;4971122;27;4341273;-85
2021/08/20 10:52:26;;;;;;;5.03;4.63;;;25.80;98.20;;;;;;5042709;27;1566743;-85
2021/08/20 10:55:15;;;;;;;4.93;4.40;;;25.90;97.70;;;;;;5076283;27;20408;-86
2021/08/20 10:58:00;;;;;;;5.78;4.50;;;25.70;97.20;;;;;;5066924;27;1584996;-84
2021/08/20 11:00:40;;;;;;;5.38;4.50;;;25.60;97.10;;;;;;5116450;27;20906;-86
2021/08/20 11:03:40;;;;;;;4.25;3.85;;;25.40;96.80;;;;;;5094342;27;20376;-86
2021/08/20 11:06:46;;;;;;;4.97;4.47;;;25.10;96.70;;;;;;5089325;28;20430;-88
2021/08/20 11:10:08;;;;;;;4.28;3.75;;;24.90;96.60;;;;;;5087985;27;20498;-82
2021/08/20 11:13:11;;;;;;;5.03;4.53;;;24.80;96.80;;;;;;5085624;28;20314;-84
2021/08/20 11:16:40;;;;;;;5.60;4.25;;;24.80;96.80;;;;;;5055273;27;2031069;-84
2021/08/20 11:19:56;;;;;;;4.30;3.90;;;24.90;96.80;;;;;;4731596;27;10109606;-84
2021/08/20 11:22:42;;;;;;;3.40;3.00;;;25.10;95.90;;;;;;5085129;28;20054;-85
2021/08/20 11:25:24;;;;;;;4.72;3.85;;;24.90;96.10;;;;;;4911367;27;5520661;-85
2021/08/20 11:28:55;;;;;;;4.53;3.10;;;24.80;96.00;;;;;;5056775;27;21270;-85
2021/08/20 11:32:07;;;;;;;3.25;2.53;;;25.10;95.90;;;;;;5084207;27;20411;-85
2021/08/20 11:35:00;;;;;;;4.28;2.30;;;25.50;95.40;;;;;;5057571;28;20505;-84
2021/08/20 11:37:29;;;;;;;2.05;1.75;;;26.10;93.90;;;;;;5068290;28;20044;-84
2021/08/20 11:40:09;;;;;;;1.90;1.10;;;26.40;93.10;;;;;;5072473;28;20028;-85
2021/08/20 11:42:36;;;;;;;2.30;1.42;;;26.50;92.70;;;;;;5054094;28;20056;-86
2021/08/20 11:45:22;;;;;;;3.90;2.03;;;26.50;92.60;;;;;;5065830;28;20044;-85
2021/08/20 11:48:14;;;;;;;2.35;1.88;;;26.80;92.10;;;;;;5069174;28;20044;-85
2021/08/20 11:50:46;;;;;;;3.05;1.60;;;27.10;91.70;;;;;;5067955;28;20040;-86
2021/08/20 11:53:20;;;;;;;2.78;1.63;;;27.80;91.20;;;;;;5064515;28;20055;-87
2021/08/20 11:56:49;;;;;;;;;;;;;;;;;;;;;
2021/08/20 11:59:29;;;;;;;2.97;2.35;;;29.00;88.00;;;;;;5062741;28;20041;-87
2021/08/20 12:02:26;;;;;;;2.17;1.67;;;29.50;85.80;;;;;;5064206;28;20051;-87
2021/08/20 12:05:21;;;;;;;4.38;2.60;;;29.80;85.80;;;;;;5067343;28;20048;-87
2021/08/20 12:07:54;;;;;;;2.30;1.73;;;30.20;82.00;;;;;;5050167;28;20036;-87
2021/08/20 12:11:09;;;;;;;2.78;1.90;;;30.40;80.60;;;;;;5067058;28;20612;-87
2021/08/20 12:14:03;;;;;;;3.00;2.60;;;30.10;79.80;;;;;;5083065;28;20055;-88
2021/08/20 12:17:01;;;;;;;4.35;2.38;;;29.40;79.60;;;;;;5033376;28;20399;-87
2021/08/20 12:20:21;;;;;;;3.47;2.58;;;29.60;80.60;;;;;;5093170;28;20616;-87
2021/08/20 12:23:50;;;;;;;3.40;2.55;;;30.30;79.60;;;;;;5042664;28;20044;-87
2021/08/20 12:27:46;;;;;;;3.92;2.80;;;30.90;77.30;;;;;;5021652;28;20048;-88
2021/08/20 12:30:29;;;;;;;3.13;2.63;;;31.50;75.70;;;;;;5046418;28;20051;-88
2021/08/20 12:33:35;;;;;;;3.97;3.53;;;31.70;74.10;;;;;;5052134;28;20047;-89
2021/08/20 12:36:47;;;;;;;5.22;3.47;;;32.00;71.70;;;;;;5047993;28;20045;-88
2021/08/20 12:40:21;;;;;;;3.60;3.30;;;32.30;70.00;;;;;;5025923;28;20041;-90
2021/08/20 12:43:57;;;;;;;;;;;;;;;;;;;;;
2021/08/20 12:46:50;;;;;;;3.38;3.08;;;33.00;68.50;;;;;;5044083;28;20048;-88
2021/08/20 12:49:58;;;;;;;;;;;;;;;;;;;;;
2021/08/20 12:53:42;;;;;;;;;;;32.90;67.30;;;;;;4994827;28;20041;-87
2021/08/20 12:56:49;;;;;;;;;;;;;;;;;;;;;
2021/08/20 12:59:31;;;;;;;2.50;2.30;;;33.90;63.90;;;;;;5053154;28;20056;-88
2021/08/20 13:02:19;;;;;;;3.95;3.25;;;34.10;62.20;;;;;;5033408;28;20043;-88
2021/08/20 13:05:15;;;;;;;4.72;3.33;;;34.50;60.90;;;;;;5022575;28;20066;-88
2021/08/20 13:09:02;;;;;;;3.17;2.55;;;34.80;59.20;;;;;;5031896;28;20049;-88
2021/08/20 13:16:30;;;;;;;3.25;2.95;;;34.10;57.60;;;;;;5070459;28;20043;-88
2021/08/20 13:19:51;;;;;;;3.15;2.60;;;33.60;58.70;;;;;;5003139;28;20064;-86
2021/08/20 13:22:21;;;;;;;4.32;2.65;;;33.10;60.10;;;;;;4988941;28;20053;-88
2021/08/20 13:25:33;;;;;;;3.58;3.28;;;32.70;61.20;;;;;;4996326;28;20050;-87
2021/08/20 13:28:20;;;;;;;2.85;2.42;;;32.50;61.20;;;;;;5016180;28;20068;-86
2021/08/20 13:31:47;;;;;;;2.13;1.75;;;32.30;60.80;;;;;;5011612;28;20056;-89
2021/08/20 13:34:28;;;;;;;4.28;2.60;;;32.30;61.00;;;;;;4996254;28;20154;-87
2021/08/20 13:37:37;;;;;;;2.80;1.92;;;31.90;61.20;;;;;;4965196;28;20057;-87
2021/08/20 13:41:04;;;;;;;3.28;2.58;;;31.60;62.40;;;;;;4939352;28;20049;-88
2021/08/20 13:49:02;;;;;;;4.28;2.70;;;31.00;63.80;;;;;;4928416;28;20058;-87
2021/08/20 13:51:59;;;;;;;5.15;2.67;;;31.00;63.40;;;;;;5015619;28;20051;-87
2021/08/20 13:54:44;;;;;;;4.47;2.30;;;30.90;63.80;;;;;;5032827;28;20048;-87
2021/08/20 13:57:20;;;;;;;3.17;2.50;;;30.70;64.00;;;;;;5047876;28;20044;-88
2021/08/20 14:00:27;;;;;;;2.85;2.65;;;30.40;63.40;;;;;;5038361;28;20118;-89
2021/08/20 14:03:46;;;;;;;3.95;2.83;;;30.20;64.10;;;;;;5071063;28;20059;-87
2021/08/20 14:06:29;;;;;;;3.50;2.78;;;29.90;64.90;;;;;;5036821;28;20044;-86
2021/08/20 14:09:19;;;;;;;3.00;2.38;;;29.70;66.10;;;;;;5037723;28;20060;-88
2021/08/20 14:12:20;;;;;;;2.88;2.58;;;29.40;66.90;;;;;;5056673;28;20041;-87
2021/08/20 14:15:22;;;;;;;2.53;2.28;;;29.10;66.80;;;;;;5068604;28;20047;-87
2021/08/20 14:18:09;;;;;;;2.97;2.53;;;28.80;67.80;;;;;;5017198;28;20049;-87
2021/08/20 14:20:47;;;;;;;3.90;3.55;;;28.80;68.00;;;;;;5038582;28;20044;-89
2021/08/20 14:23:17;;;;;;;3.67;2.80;;;28.90;68.30;;;;;;5048757;28;20039;-87
2021/08/20 14:25:49;;;;;;;4.47;2.30;;;28.80;68.10;;;;;;5047381;28;20043;-88
2021/08/20 14:28:25;;;;;;;3.78;2.53;;;28.70;68.00;;;;;;5044548;28;20079;-88
2021/08/20 14:30:59;;;;;;;3.15;2.83;;;28.60;69.10;;;;;;5020348;28;20047;-88
2021/08/20 14:33:33;;;;;;;2.70;2.17;;;28.50;69.10;;;;;;5034687;28;20048;-86
2021/08/20 14:36:03;;;;;;;4.07;2.53;;;28.50;69.60;;;;;;5052783;28;20055;-86
2021/08/20 14:38:40;;;;;;;3.78;3.22;;;28.60;69.60;;;;;;5052875;28;20036;-87
2021/08/20 14:41:19;;;;;;;3.92;3.63;;;28.90;69.00;;;;;;5015266;28;20048;-85
2021/08/20 14:43:59;;;;;;;3.97;3.67;;;29.00;68.20;;;;;;5014566;28;20056;-86
2021/08/20 14:46:48;;;;;;;4.05;3.75;;;29.00;68.30;;;;;;5038219;28;20051;-86
2021/08/20 14:49:20;;;;;;;4.57;4.18;;;29.10;68.60;;;;;;5024025;28;20399;-86
2021/08/20 14:51:47;;;;;;;6.43;4.30;;;29.40;67.40;;;;;;5021814;28;20052;-87
2021/08/20 14:54:14;;;;;;;6.05;5.55;;;29.40;67.80;;;;;;5041561;28;20062;-87
2021/08/20 14:56:43;;;;;;;5.32;4.82;;;29.10;67.60;;;;;;5003708;28;20039;-86
2021/08/20 14:59:18;;;;;;;5.15;4.75;;;28.80;68.20;;;;;;5048555;28;20050;-86
2021/08/20 15:02:00;;;;;;;5.78;5.05;;;28.60;69.10;;;;;;5040106;28;20146;-87
2021/08/20 15:04:48;;;;;;;5.10;4.70;;;28.40;69.90;;;;;;5058801;28;20476;-86